Time;durP1;ratioP1;P1;durP2;ratioP2;P2;SDS_P1;SDS_P2;PMS_P1;PMS_P2;Temp;Humidity;BMP_temperature;BMP_pressure;BME280_temperature;BME280_humidity;BME280_pressure;Samples;Min_cycle;Max_cycle;Signal;HPM_P1;HPM_P2
2023/10/16 00:02:22;;;;;;;3.85;2.38;;;;;;;6.38;92.45;102325.88;5049680;28;20021;-80
2023/10/16 00:04:47;;;;;;;3.90;2.33;;;;;;;6.38;92.50;102329.34;5050136;28;20021;-80
2023/10/16 00:07:13;;;;;;;3.50;1.92;;;;;;;6.39;92.12;102319.88;5054758;28;20041;-80
2023/10/16 00:09:40;;;;;;;4.15;2.42;;;;;;;6.41;92.21;102313.00;5052631;28;20032;-83
2023/10/16 00:12:07;;;;;;;4.55;2.80;;;;;;;6.41;91.82;102313.00;5049087;28;20039;-81
2023/10/16 00:14:33;;;;;;;4.38;2.70;;;;;;;6.42;91.51;102319.94;5053566;28;20108;-80
2023/10/16 00:16:58;;;;;;;5.63;2.90;;;;;;;6.43;91.96;102321.66;5050664;28;20112;-80
2023/10/16 00:19:27;;;;;;;3.03;2.15;;;;;;;6.44;92.05;102318.25;5051887;28;20079;-80
2023/10/16 00:21:52;;;;;;;3.40;2.30;;;;;;;6.44;91.86;102320.81;5047228;28;20033;-80
2023/10/16 00:24:18;;;;;;;4.43;2.15;;;;;;;6.46;91.94;102324.31;5043284;28;20021;-80
2023/10/16 00:26:50;;;;;;;3.90;2.20;;;;;;;6.45;91.60;102314.81;5046826;28;20473;-80
2023/10/16 00:29:24;;;;;;;6.18;2.22;;;;;;;6.46;91.42;102323.41;5048582;28;20033;-80
2023/10/16 00:31:51;;;;;;;5.40;2.13;;;;;;;6.46;91.83;102321.72;5049066;28;20059;-80
2023/10/16 00:34:20;;;;;;;4.88;2.55;;;;;;;6.46;91.44;102324.31;5056711;28;20025;-80
2023/10/16 00:36:46;;;;;;;5.70;2.20;;;;;;;6.45;91.61;102319.97;5050390;28;20115;-80
2023/10/16 00:39:14;;;;;;;5.13;2.30;;;;;;;6.42;91.44;102319.94;5049136;28;20502;-80
2023/10/16 00:41:40;;;;;;;6.57;2.92;;;;;;;6.38;91.45;102323.31;5049630;28;20029;-80
2023/10/16 00:44:06;;;;;;;3.42;2.20;;;;;;;6.37;91.27;102322.44;5045566;28;20403;-80
2023/10/16 00:46:45;;;;;;;3.80;2.17;;;;;;;6.34;91.69;102317.22;5049715;28;20103;-80
2023/10/16 00:49:13;;;;;;;3.80;2.30;;;;;;;6.32;91.63;102325.81;5052498;28;20029;-80
2023/10/16 00:51:38;;;;;;;5.28;2.45;;;;;;;6.30;90.90;102324.91;5050652;28;20029;-80
2023/10/16 00:54:15;;;;;;;3.42;2.28;;;;;;;6.23;90.34;102324.81;5051195;28;20074;-80
2023/10/16 00:56:42;;;;;;;5.25;2.60;;;;;;;6.15;90.75;102328.97;5049376;28;20029;-80
2023/10/16 00:59:07;;;;;;;6.00;2.67;;;;;;;6.08;90.50;102325.41;5051268;28;20113;-80
2023/10/16 01:01:33;;;;;;;3.70;2.50;;;;;;;6.03;90.68;102321.91;5050330;28;20068;-80
2023/10/16 01:03:58;;;;;;;6.07;2.38;;;;;;;5.98;90.70;102325.22;5046306;28;20528;-80
2023/10/16 01:06:36;;;;;;;3.67;2.50;;;;;;;5.94;91.02;102321.69;5044159;28;20049;-80
2023/10/16 01:09:07;;;;;;;4.75;2.70;;;;;;;5.90;90.86;102314.72;5043419;28;20120;-80
2023/10/16 01:11:37;;;;;;;5.93;2.17;;;;;;;5.85;90.86;102317.22;5044426;28;20025;-80
2023/10/16 01:14:03;;;;;;;5.78;2.70;;;;;;;5.78;91.05;102312.81;5049149;28;20468;-80
2023/10/16 01:16:29;;;;;;;3.92;2.25;;;;;;;5.73;91.08;102310.13;5048953;28;20039;-80
2023/10/16 01:19:00;;;;;;;4.63;2.30;;;;;;;5.70;92.27;102306.63;5044500;28;20017;-80
2023/10/16 01:21:27;;;;;;;4.55;2.38;;;;;;;5.72;92.35;102305.81;5048775;28;20184;-80
2023/10/16 01:23:52;;;;;;;3.63;2.30;;;;;;;5.71;91.88;102303.19;5050476;28;20112;-80
2023/10/16 01:26:17;;;;;;;3.70;1.80;;;;;;;5.70;92.05;102307.50;5047719;28;20111;-81
2023/10/16 01:28:43;;;;;;;3.15;1.80;;;;;;;5.67;91.79;102296.25;5047672;28;20404;-80
2023/10/16 01:31:09;;;;;;;2.58;1.70;;;;;;;5.64;92.33;102293.63;5048018;28;20048;-80
2023/10/16 01:33:35;;;;;;;3.67;1.90;;;;;;;5.62;92.59;102298.75;5048720;28;20075;-80
2023/10/16 01:36:00;;;;;;;3.00;1.73;;;;;;;5.61;92.77;102294.41;5050221;28;20115;-80
2023/10/16 01:38:27;;;;;;;3.42;1.88;;;;;;;5.60;92.47;102293.56;5050672;28;20447;-80
2023/10/16 01:41:09;;;;;;;2.75;1.90;;;;;;;5.59;92.77;102291.81;5045949;28;20031;-80
2023/10/16 01:43:37;;;;;;;2.88;2.00;;;;;;;5.60;92.61;102301.31;5044670;28;20036;-80
2023/10/16 01:46:08;;;;;;;2.95;1.80;;;;;;;5.59;91.52;102289.25;5050166;28;20206;-80
2023/10/16 01:48:49;;;;;;;4.78;2.50;;;;;;;5.58;91.32;102296.94;5050803;28;20448;-80
2023/10/16 01:51:19;;;;;;;3.55;2.17;;;;;;;5.52;91.99;102292.53;5052075;28;20056;-80
2023/10/16 01:53:47;;;;;;;3.70;2.08;;;;;;;5.50;92.84;102293.34;5050695;28;20044;-80
2023/10/16 01:56:13;;;;;;;5.40;2.28;;;;;;;5.50;93.07;102281.31;5051449;28;20357;-80
2023/10/16 01:58:44;;;;;;;3.20;2.03;;;;;;;5.52;93.16;102277.03;5050413;28;20032;-80
2023/10/16 02:01:14;;;;;;;3.38;2.10;;;;;;;5.54;93.41;102280.53;5051260;28;20052;-80
2023/10/16 02:03:43;;;;;;;5.20;2.33;;;;;;;5.58;93.66;102281.44;5051880;28;20365;-80
2023/10/16 02:06:11;;;;;;;4.40;2.00;;;;;;;5.61;93.71;102284.97;5050908;28;20055;-80
2023/10/16 02:08:37;;;;;;;4.03;2.00;;;;;;;5.63;93.65;102279.84;5048661;28;20072;-80
2023/10/16 02:11:02;;;;;;;3.22;2.20;;;;;;;5.66;93.61;102285.06;5048776;28;20031;-80
2023/10/16 02:13:27;;;;;;;4.18;2.13;;;;;;;5.68;92.70;102290.22;5048056;28;20092;-80
2023/10/16 02:15:53;;;;;;;4.50;2.22;;;;;;;5.64;91.79;102280.72;5048710;28;20031;-80
2023/10/16 02:18:18;;;;;;;4.25;2.17;;;;;;;5.57;91.45;102285.75;5047417;28;20029;-80
2023/10/16 02:20:45;;;;;;;4.40;2.30;;;;;;;5.49;92.12;102276.13;5051350;28;20099;-80
2023/10/16 02:23:10;;;;;;;4.13;2.50;;;;;;;5.45;93.20;102270.06;5051635;28;20025;-80
2023/10/16 02:25:36;;;;;;;4.93;2.50;;;;;;;5.45;93.12;102267.47;5055523;28;20032;-80
2023/10/16 02:28:02;;;;;;;5.32;2.75;;;;;;;5.48;93.31;102267.50;5053491;28;20028;-80
2023/10/16 02:32:59;;;;;;;5.45;2.65;;;;;;;5.52;93.87;102264.13;5049014;28;20037;-80
2023/10/16 02:35:25;;;;;;;4.10;2.47;;;;;;;5.57;93.91;102267.69;5044729;28;20063;-80
2023/10/16 02:37:53;;;;;;;4.43;2.40;;;;;;;5.60;94.08;102270.31;5044962;28;20710;-80
2023/10/16 02:40:25;;;;;;;3.70;2.30;;;;;;;5.64;94.17;102267.81;5047907;28;20035;-80
2023/10/16 02:42:55;;;;;;;4.18;2.17;;;;;;;5.67;94.24;102262.66;5046832;28;20021;-80
2023/10/16 02:45:26;;;;;;;7.18;2.80;;;;;;;5.70;94.28;102270.47;5044998;28;20029;-80
2023/10/16 02:47:52;;;;;;;4.55;2.50;;;;;;;5.71;93.91;102264.47;5047008;28;20033;-80
2023/10/16 02:50:18;;;;;;;5.00;2.45;;;;;;;5.74;94.48;102267.13;5048429;28;20028;-80
2023/10/16 02:52:45;;;;;;;5.47;2.67;;;;;;;5.74;94.16;102261.94;5047888;28;20021;-80
2023/10/16 02:55:11;;;;;;;4.30;2.58;;;;;;;5.73;94.36;102270.53;5047632;28;20024;-80
2023/10/16 02:57:40;;;;;;;4.63;2.38;;;;;;;5.73;93.44;102273.13;5049996;28;20017;-80
2023/10/16 03:00:08;;;;;;;5.30;2.80;;;;;;;5.68;92.85;102272.16;5047026;28;20045;-80
2023/10/16 03:02:35;;;;;;;5.03;2.80;;;;;;;5.60;92.22;102270.31;5045750;28;20021;-80
2023/10/16 03:05:21;;;;;;;4.63;2.70;;;;;;;5.53;92.03;102271.03;5048734;28;20496;-80
2023/10/16 03:07:50;;;;;;;5.72;3.03;;;;;;;5.46;92.09;102275.22;5050707;28;20033;-80
2023/10/16 03:10:16;;;;;;;5.35;3.10;;;;;;;5.41;91.96;102269.09;5053619;28;20024;-80
2023/10/16 03:12:43;;;;;;;5.75;2.90;;;;;;;5.35;92.34;102276.75;5067451;28;20040;-80
2023/10/16 03:15:27;;;;;;;4.60;3.08;;;;;;;5.32;92.57;102280.13;5051059;28;20136;-80
2023/10/16 03:17:54;;;;;;;3.90;2.80;;;;;;;5.30;93.19;102275.78;5050225;28;20116;-80
2023/10/16 03:20:24;;;;;;;5.53;2.83;;;;;;;5.31;93.50;102278.38;5053862;28;20080;-80
2023/10/16 03:22:50;;;;;;;4.40;2.75;;;;;;;5.33;93.61;102262.94;5052976;28;20108;-80
2023/10/16 03:25:28;;;;;;;5.10;2.92;;;;;;;5.35;94.11;102268.13;5050389;28;20159;-80
2023/10/16 03:27:57;;;;;;;5.00;2.70;;;;;;;5.37;94.60;102269.03;5052614;28;20029;-80
2023/10/16 03:30:27;;;;;;;3.78;2.53;;;;;;;5.35;94.63;102265.53;5053278;28;20029;-80
2023/10/16 03:32:53;;;;;;;5.10;2.97;;;;;;;5.37;94.69;102262.16;5053861;28;20021;-80
2023/10/16 03:35:21;;;;;;;6.13;2.63;;;;;;;5.38;94.32;102257.84;5045463;28;20032;-80
2023/10/16 03:37:49;;;;;;;7.10;2.88;;;;;;;5.40;94.73;102258.75;5051136;28;20555;-80
2023/10/16 03:40:16;;;;;;;5.45;2.72;;;;;;;5.42;93.70;102264.81;5048760;28;20032;-80
2023/10/16 03:42:43;;;;;;;4.93;2.90;;;;;;;5.40;93.17;102262.19;5052150;28;20035;-80
2023/10/16 03:45:09;;;;;;;4.85;3.00;;;;;;;5.35;93.10;102257.78;5061618;28;20025;-80
2023/10/16 03:47:34;;;;;;;5.75;2.83;;;;;;;5.30;93.67;102250.81;5051752;28;20033;-80
2023/10/16 03:49:59;;;;;;;3.92;2.78;;;;;;;5.28;93.49;102257.69;5051429;28;20033;-80
2023/10/16 03:52:27;;;;;;;4.72;3.03;;;;;;;5.28;93.28;102262.84;5051314;28;20029;-80
2023/10/16 03:54:53;;;;;;;4.93;3.05;;;;;;;5.29;93.86;102249.13;5049237;28;20164;-80
2023/10/16 03:57:20;;;;;;;6.82;3.03;;;;;;;5.31;93.67;102252.56;5048669;28;20111;-80
2023/10/16 03:59:47;;;;;;;4.60;2.65;;;;;;;5.28;92.88;102265.44;5053601;28;20021;-80
2023/10/16 04:02:19;;;;;;;5.57;3.10;;;;;;;5.24;93.49;102261.06;5052936;28;20104;-80
2023/10/16 04:04:46;;;;;;;5.25;2.97;;;;;;;5.21;93.43;102258.41;5049321;28;20025;-80
2023/10/16 04:07:14;;;;;;;4.82;3.10;;;;;;;5.21;93.93;102261.00;5053679;28;20087;-80
2023/10/16 04:09:48;;;;;;;5.20;3.15;;;;;;;5.24;94.25;102257.59;5052886;28;20024;-80
2023/10/16 04:12:17;;;;;;;5.50;3.25;;;;;;;5.27;94.51;102253.38;5050149;28;20103;-80
2023/10/16 04:14:49;;;;;;;5.47;3.53;;;;;;;5.30;94.76;102252.56;5053638;28;20036;-80
2023/10/16 04:17:14;;;;;;;7.72;3.28;;;;;;;5.32;95.27;102254.31;5054060;28;20047;-80
2023/10/16 04:19:59;;;;;;;6.57;3.50;;;;;;;5.35;93.94;102252.63;5068292;28;20104;-80
2023/10/16 04:22:25;;;;;;;5.30;2.88;;;;;;;5.32;93.73;102249.16;5054866;28;20025;-80
2023/10/16 04:24:54;;;;;;;5.10;3.65;;;;;;;5.31;94.25;102247.41;5049321;28;20026;-80
2023/10/16 04:27:29;;;;;;;6.45;3.40;;;;;;;5.35;94.85;102247.47;5053342;28;20017;-80
2023/10/16 04:32:56;;;;;;;4.80;3.17;;;;;;;5.44;95.45;102245.06;5051386;28;20036;-80
2023/10/16 04:43:51;;;;;;;5.45;3.00;;;;;;;5.51;95.05;102228.84;5047133;28;20036;-80
2023/10/16 04:46:20;;;;;;;5.80;2.92;;;;;;;5.52;95.16;102214.25;5052275;28;20086;-80
2023/10/16 04:48:51;;;;;;;6.68;4.03;;;;;;;5.51;95.09;102215.94;5048287;28;20024;-80
2023/10/16 04:51:17;;;;;;;4.38;2.97;;;;;;;5.52;95.30;102217.69;5050871;28;20497;-80
2023/10/16 04:53:58;;;;;;;4.88;3.20;;;;;;;5.52;95.61;102216.81;5050240;28;20534;-80
2023/10/16 04:59:37;;;;;;;4.95;3.05;;;;;;;5.51;95.37;102218.50;5027908;28;20057;-80
2023/10/16 05:02:16;;;;;;;6.45;3.50;;;;;;;5.52;94.38;102220.25;5023704;28;20558;-80
2023/10/16 05:07:53;;;;;;;5.30;3.58;;;;;;;5.46;93.74;102217.59;5040495;28;20036;-80
2023/10/16 05:10:43;;;;;;;7.10;3.22;;;;;;;5.44;94.47;102216.69;5046684;28;20075;-80
2023/10/16 05:18:46;;;;;;;5.25;3.28;;;;;;;5.56;96.47;102205.69;5049537;28;20519;-80
2023/10/16 06:16:18;;;;;;;7.25;3.67;;;;;;;5.99;96.89;102218.44;5042335;28;20131;-80
2023/10/16 06:18:45;;;;;;;6.60;3.90;;;;;;;6.01;97.12;102219.34;5043550;28;20116;-80
2023/10/16 06:21:14;;;;;;;6.15;3.90;;;;;;;6.02;97.48;102215.94;5047667;28;20087;-80
2023/10/16 06:23:42;;;;;;;6.18;3.78;;;;;;;6.05;97.43;102210.81;5047718;28;20032;-80
2023/10/16 06:26:08;;;;;;;6.20;3.45;;;;;;;6.07;97.31;102209.13;5045251;28;20040;-80
2023/10/16 06:28:34;;;;;;;5.63;3.65;;;;;;;6.10;97.30;102209.19;5043624;28;20032;-80
2023/10/16 06:30:59;;;;;;;5.82;3.95;;;;;;;6.11;97.59;102210.91;5049080;28;20020;-80
2023/10/16 06:33:25;;;;;;;6.80;4.05;;;;;;;6.13;96.61;102219.56;5054515;28;20035;-85
2023/10/16 06:35:52;;;;;;;7.18;4.05;;;;;;;6.13;97.05;102224.72;5045814;28;20029;-80
2023/10/16 06:38:21;;;;;;;8.68;4.22;;;;;;;6.14;97.33;102216.13;5056353;28;20052;-80
2023/10/16 06:40:46;;;;;;;6.22;3.97;;;;;;;6.19;97.61;102211.88;5045216;28;20033;-80
2023/10/16 06:43:14;;;;;;;5.95;4.05;;;;;;;6.21;97.54;102214.50;5050792;28;20017;-80
2023/10/16 06:45:55;;;;;;;7.75;4.35;;;;;;;6.22;97.02;102211.94;5060460;28;20309;-80
2023/10/16 06:48:20;;;;;;;6.60;3.85;;;;;;;6.26;97.38;102214.56;5050781;28;20063;-80
2023/10/16 06:50:53;;;;;;;7.22;4.13;;;;;;;6.27;96.96;102214.59;5051774;28;20495;-80
2023/10/16 06:53:19;;;;;;;6.97;3.90;;;;;;;6.30;97.15;102211.19;5054059;28;20021;-79
2023/10/16 06:55:45;;;;;;;6.43;4.22;;;;;;;6.32;96.65;102225.00;5052292;28;20033;-80
2023/10/16 06:58:11;;;;;;;7.50;4.28;;;;;;;6.35;96.87;102217.28;5052244;28;20048;-80
2023/10/16 07:00:38;;;;;;;6.00;3.72;;;;;;;6.40;96.93;102217.38;5050008;28;20084;-80
2023/10/16 07:03:09;;;;;;;6.72;3.90;;;;;;;6.46;96.83;102222.59;5052700;28;20439;-80
2023/10/16 07:05:44;;;;;;;7.53;4.15;;;;;;;6.49;96.72;102217.47;5051403;28;20035;-80
2023/10/16 07:08:16;;;;;;;6.40;4.35;;;;;;;6.52;96.84;102218.38;5053335;28;20021;-80
2023/10/16 07:10:51;;;;;;;6.53;4.38;;;;;;;6.57;96.37;102215.88;5049844;28;20029;-79
2023/10/16 07:13:26;;;;;;;5.95;3.92;;;;;;;6.59;96.27;102224.50;5053488;28;20052;-80
2023/10/16 07:15:53;;;;;;;7.93;4.15;;;;;;;6.60;96.43;102218.47;5050067;28;20112;-80
2023/10/16 07:18:24;;;;;;;7.40;4.28;;;;;;;6.62;96.54;102219.38;5054092;28;20028;-80
2023/10/16 07:20:59;;;;;;;8.35;4.47;;;;;;;6.65;96.24;102222.00;5053722;28;20028;-80
2023/10/16 07:23:25;;;;;;;6.38;4.38;;;;;;;6.67;96.58;102217.72;5054306;28;20032;-80
2023/10/16 07:25:57;;;;;;;8.55;5.28;;;;;;;6.69;96.48;102220.31;5050861;28;20025;-80
2023/10/16 07:28:24;;;;;;;8.73;4.70;;;;;;;6.72;96.06;102222.09;5049068;28;20024;-80
2023/10/16 07:30:50;;;;;;;6.18;4.45;;;;;;;6.73;96.38;102216.91;5047012;28;20025;-80
2023/10/16 07:33:15;;;;;;;8.18;4.40;;;;;;;6.77;96.37;102213.53;5049560;28;20438;-79
2023/10/16 07:35:44;;;;;;;8.75;4.93;;;;;;;6.79;96.45;102217.00;5050301;28;20025;-80
2023/10/16 07:38:13;;;;;;;8.55;4.72;;;;;;;6.81;95.95;102214.44;5051057;28;20024;-80
2023/10/16 07:40:38;;;;;;;6.43;4.80;;;;;;;6.83;96.04;102218.75;5045850;28;20029;-80
2023/10/16 07:43:06;;;;;;;7.63;4.75;;;;;;;6.86;96.19;102223.13;5049048;28;20036;-80
2023/10/16 07:45:32;;;;;;;7.95;5.35;;;;;;;6.88;96.65;102220.53;5045938;28;20028;-80
2023/10/16 07:48:07;;;;;;;9.07;5.15;;;;;;;6.91;96.32;102218.88;5049707;28;20104;-80
2023/10/16 07:50:38;;;;;;;6.97;4.47;;;;;;;6.93;96.08;102219.75;5046024;28;20556;-80
2023/10/16 07:53:04;;;;;;;7.50;4.88;;;;;;;6.95;95.67;102217.19;5048658;28;20026;-80
2023/10/16 07:55:39;;;;;;;9.07;4.82;;;;;;;6.97;95.85;102216.34;5048243;28;20078;-80
2023/10/16 07:58:12;;;;;;;6.93;4.57;;;;;;;7.02;95.25;102218.97;5040620;28;20114;-80
2023/10/16 08:00:42;;;;;;;7.63;4.82;;;;;;;7.02;95.68;102206.03;5045716;28;20044;-80
2023/10/16 08:03:13;;;;;;;7.63;5.20;;;;;;;7.07;96.02;102219.91;5042718;28;20104;-80
2023/10/16 08:05:47;;;;;;;8.23;5.50;;;;;;;7.10;95.68;102217.34;5046045;28;20096;-80
2023/10/16 08:08:12;;;;;;;7.78;5.22;;;;;;;7.14;95.21;102220.84;5043992;28;20020;-80
2023/10/16 08:10:41;;;;;;;9.32;5.70;;;;;;;7.18;95.37;102224.31;5045162;28;20032;-80
2023/10/16 08:13:13;;;;;;;10.82;5.75;;;;;;;7.22;95.79;102220.91;5042742;28;20044;-80
2023/10/16 08:15:44;;;;;;;8.98;5.35;;;;;;;7.25;95.08;102221.84;5045744;28;20033;-80
2023/10/16 08:18:12;;;;;;;8.57;4.90;;;;;;;7.30;95.04;102221.88;5044672;28;20112;-79
2023/10/16 08:20:49;;;;;;;6.97;4.65;;;;;;;7.35;95.20;102217.59;5043416;28;20025;-80
2023/10/16 08:23:16;;;;;;;8.40;4.75;;;;;;;7.41;95.27;102211.63;5040387;28;20172;-80
2023/10/16 08:25:41;;;;;;;7.88;4.82;;;;;;;7.47;95.17;102227.22;5047864;28;20028;-79
2023/10/16 08:28:24;;;;;;;8.00;4.53;;;;;;;7.52;95.05;102216.88;5045365;28;20021;-80
2023/10/16 08:30:51;;;;;;;10.00;4.78;;;;;;;7.56;94.92;102216.97;5045299;28;20040;-80
2023/10/16 08:33:17;;;;;;;6.93;4.32;;;;;;;7.61;94.86;102214.41;5043525;28;20078;-80
2023/10/16 08:35:43;;;;;;;8.48;4.65;;;;;;;7.67;95.63;102219.66;5049859;28;20029;-79
2023/10/16 08:38:36;;;;;;;6.30;4.55;;;;;;;7.72;95.77;102211.91;5048431;28;20466;-80
2023/10/16 08:41:07;;;;;;;7.22;4.55;;;;;;;7.79;95.82;102215.41;5047547;28;20041;-80
2023/10/16 08:46:44;;;;;;;6.13;3.90;;;;;;;7.93;95.39;102211.19;5045102;28;20084;-79
2023/10/16 08:49:10;;;;;;;5.13;3.45;;;;;;;7.99;95.42;102216.44;5041646;28;20044;-79
2023/10/16 08:51:36;;;;;;;7.65;4.28;;;;;;;8.04;94.58;102219.06;5041559;28;20028;-80
2023/10/16 08:54:03;;;;;;;6.40;3.75;;;;;;;8.11;94.56;102214.78;5042962;28;20024;-80
2023/10/16 08:56:30;;;;;;;7.22;3.67;;;;;;;8.17;95.39;102217.41;5042643;28;20052;-79
2023/10/16 08:58:55;;;;;;;6.85;3.72;;;;;;;8.23;96.12;102220.03;5046592;28;20391;-79
2023/10/16 09:01:23;;;;;;;6.07;3.80;;;;;;;8.26;95.53;102217.47;5040260;28;20049;-79
2023/10/16 09:03:54;;;;;;;5.85;3.67;;;;;;;8.31;95.52;102225.25;5042920;28;20021;-79
2023/10/16 09:06:23;;;;;;;4.88;3.55;;;;;;;8.35;95.94;102220.13;5040725;28;20025;-79
2023/10/16 09:08:54;;;;;;;5.88;3.33;;;;;;;8.42;95.82;102226.22;5042068;28;20028;-80
2023/10/16 09:11:20;;;;;;;5.95;3.60;;;;;;;8.48;96.06;102215.03;5042061;28;20480;-80
2023/10/16 09:13:52;;;;;;;5.40;3.58;;;;;;;8.54;95.81;102209.84;5041091;28;20056;-81
2023/10/16 09:16:30;;;;;;;7.28;3.55;;;;;;;8.61;95.33;102222.00;5042158;28;20024;-80
2023/10/16 09:18:58;;;;;;;5.05;3.38;;;;;;;8.69;94.94;102216.00;5051133;28;20040;-81
2023/10/16 09:21:28;;;;;;;5.82;3.72;;;;;;;8.74;94.69;102211.69;5044671;28;20056;-80
2023/10/16 09:23:58;;;;;;;6.43;3.38;;;;;;;8.81;95.24;102216.03;5047768;28;20031;-80
2023/10/16 09:26:28;;;;;;;5.47;3.10;;;;;;;8.84;93.11;102218.66;5048374;28;20377;-80
2023/10/16 09:29:15;;;;;;;5.47;3.05;;;;;;;8.90;93.54;102216.06;5044643;28;20195;-80
2023/10/16 09:31:48;;;;;;;6.05;3.45;;;;;;;8.96;93.58;102208.31;5056013;28;20031;-80
2023/10/16 09:34:20;;;;;;;5.15;3.20;;;;;;;9.01;93.32;102208.31;5038034;28;20063;-80
2023/10/16 09:37:14;;;;;;;5.22;3.30;;;;;;;9.07;92.64;102210.06;5039387;28;20609;-80
2023/10/16 09:39:35;;;;;;;6.15;3.03;;;;;;;9.12;91.75;102205.75;5040125;28;20103;-79
2023/10/16 09:42:13;;;;;;;5.13;3.08;;;;;;;9.19;92.64;102212.72;5041330;28;20503;-80
2023/10/16 09:44:40;;;;;;;5.65;2.90;;;;;;;9.26;92.67;102210.97;5039939;28;20526;-80
2023/10/16 09:47:30;;;;;;;6.30;3.03;;;;;;;9.32;91.72;102215.31;5039950;28;20078;-79
2023/10/16 09:50:00;;;;;;;6.40;2.70;;;;;;;9.38;90.89;102215.34;5040160;28;20021;-80
2023/10/16 09:52:31;;;;;;;5.07;2.42;;;;;;;9.43;90.68;102218.78;5047444;28;20468;-80
2023/10/16 09:54:59;;;;;;;4.47;2.78;;;;;;;9.48;89.60;102219.66;5045704;28;20025;-80
2023/10/16 09:57:29;;;;;;;4.40;2.85;;;;;;;9.53;89.67;102215.34;5049162;28;20025;-80
2023/10/16 10:00:00;;;;;;;;;;;;;;;9.61;90.95;102217.06;5044944;28;20464;-80
2023/10/16 10:02:31;;;;;;;5.88;2.58;;;;;;;9.65;90.79;102218.81;5045012;28;19920;-80
2023/10/16 10:04:59;;;;;;;4.93;2.50;;;;;;;9.69;90.09;102210.16;5039376;28;20104;-80
2023/10/16 10:07:37;;;;;;;4.57;2.50;;;;;;;9.72;89.97;102215.38;5038754;28;20432;-81
2023/10/16 10:12:53;;;;;;;4.05;2.53;;;;;;;9.82;89.34;102211.03;5036800;28;20142;-81
2023/10/16 10:15:26;;;;;;;5.13;2.40;;;;;;;9.86;89.28;102223.13;5041628;28;20033;-81
2023/10/16 10:17:55;;;;;;;5.35;2.60;;;;;;;9.90;89.17;102213.63;5037268;28;20028;-81
2023/10/16 10:20:32;;;;;;;4.25;2.50;;;;;;;9.93;88.65;102216.19;5036934;28;20475;-81
2023/10/16 10:23:08;;;;;;;3.33;2.38;;;;;;;9.97;88.89;102212.72;5036137;28;20492;-81
2023/10/16 10:25:41;;;;;;;5.47;2.30;;;;;;;9.99;88.33;102208.41;5038179;28;20429;-81
2023/10/16 10:28:22;;;;;;;4.43;2.35;;;;;;;10.02;87.90;102209.25;5040845;28;20060;-81
2023/10/16 10:30:49;;;;;;;6.13;2.33;;;;;;;10.05;87.58;102210.13;5042231;28;20032;-81
2023/10/16 10:33:37;;;;;;;4.28;2.00;;;;;;;10.07;87.63;102206.66;5037848;28;20033;-80
2023/10/16 10:36:28;;;;;;;3.63;1.80;;;;;;;10.11;87.69;102213.56;5038988;28;20029;-80
2023/10/16 10:41:55;;;;;;;2.22;1.20;;;;;;;10.12;85.65;102209.25;5043574;28;20032;-80
2023/10/16 10:44:35;;;;;;;3.72;1.30;;;;;;;10.15;85.10;102204.91;5039489;28;20025;-81
2023/10/16 10:47:14;;;;;;;1.50;1.10;;;;;;;10.17;84.98;102207.50;5038951;28;20463;-80
2023/10/16 10:49:41;;;;;;;2.03;1.20;;;;;;;10.21;85.65;102209.22;5046007;28;20098;-81
2023/10/16 10:52:07;;;;;;;2.55;1.30;;;;;;;10.24;85.39;102197.97;5048402;28;20033;-80
2023/10/16 10:54:42;;;;;;;2.75;1.40;;;;;;;10.27;84.36;102204.03;5044549;28;20159;-80
2023/10/16 10:57:17;;;;;;;1.67;1.35;;;;;;;10.31;83.76;102200.53;5040091;28;20033;-80
2023/10/16 10:59:46;;;;;;;3.17;1.20;;;;;;;10.35;84.39;102188.38;5045144;28;20029;-80
2023/10/16 11:04:44;;;;;;;2.08;1.40;;;;;;;10.43;84.98;102191.84;5038726;28;20428;-80
2023/10/16 11:07:25;;;;;;;2.25;1.40;;;;;;;10.46;84.75;102189.25;5037549;28;20227;-81
2023/10/16 11:09:52;;;;;;;1.97;1.40;;;;;;;10.49;85.01;102183.19;5037194;28;20036;-81
2023/10/16 11:12:24;;;;;;;2.45;1.13;;;;;;;10.53;83.85;102176.22;5033219;28;20033;-81
2023/10/16 11:14:49;;;;;;;1.70;1.33;;;;;;;10.58;83.00;102182.28;5042753;28;20071;-81
2023/10/16 11:17:32;;;;;;;1.85;1.10;;;;;;;10.65;82.85;102178.75;5039761;28;20025;-81
2023/10/16 11:19:59;;;;;;;4.13;1.25;;;;;;;10.75;82.10;102180.47;5041434;28;20013;-80
2023/10/16 11:22:27;;;;;;;1.33;0.90;;;;;;;10.83;82.06;102177.81;5045972;28;20025;-80
2023/10/16 11:24:54;;;;;;;1.52;1.08;;;;;;;10.92;82.85;102174.31;5041716;28;20040;-81
2023/10/16 11:27:20;;;;;;;2.45;1.05;;;;;;;10.97;81.74;102169.91;5039262;28;20021;-79
2023/10/16 11:29:46;;;;;;;2.63;1.05;;;;;;;10.98;81.15;102176.00;5042208;28;20029;-80
2023/10/16 11:32:16;;;;;;;1.50;1.00;;;;;;;10.97;80.88;102169.06;5049615;28;20099;-80
2023/10/16 11:34:50;;;;;;;1.98;1.10;;;;;;;10.96;81.45;102164.72;5043325;28;20021;-81
2023/10/16 11:37:23;;;;;;;1.92;1.23;;;;;;;10.97;81.71;102174.28;5045050;28;20025;-81
2023/10/16 11:39:48;;;;;;;2.03;1.10;;;;;;;10.93;81.20;102161.25;5043454;28;20433;-80
2023/10/16 11:42:14;;;;;;;2.72;1.20;;;;;;;10.90;81.18;102160.44;5045196;28;20107;-79
2023/10/16 11:44:40;;;;;;;2.42;1.35;;;;;;;10.88;82.17;102163.03;5041793;28;20017;-80
2023/10/16 11:47:16;;;;;;;2.83;1.08;;;;;;;10.89;83.71;102154.34;5045710;28;20487;-80
2023/10/16 11:49:53;;;;;;;2.17;1.17;;;;;;;10.89;83.19;102156.09;5050307;28;20056;-81
2023/10/16 11:52:23;;;;;;;2.75;1.30;;;;;;;10.89;82.34;102148.28;5043766;28;20499;-81
2023/10/16 11:54:58;;;;;;;2.33;1.00;;;;;;;10.91;81.81;102149.13;5044774;28;20029;-80
2023/10/16 11:57:27;;;;;;;2.08;1.10;;;;;;;10.94;82.00;102143.88;5041744;28;20029;-80
2023/10/16 11:59:52;;;;;;;1.55;1.23;;;;;;;10.98;82.25;102143.00;5041509;28;20095;-80
2023/10/16 12:02:19;;;;;;;3.20;1.10;;;;;;;11.02;80.83;102149.94;5040721;28;20029;-80
2023/10/16 12:04:46;;;;;;;2.10;1.00;;;;;;;11.05;82.00;102143.81;5041560;28;20463;-80
2023/10/16 12:07:13;;;;;;;2.58;1.27;;;;;;;11.11;81.98;102141.19;5039297;28;20362;-80
2023/10/16 12:09:42;;;;;;;3.15;1.10;;;;;;;11.17;82.56;102129.84;5042267;28;20151;-80
2023/10/16 12:12:20;;;;;;;3.65;1.15;;;;;;;11.22;82.31;102134.16;5042661;28;20468;-85
2023/10/16 12:14:49;;;;;;;2.08;1.00;;;;;;;11.27;81.03;102131.53;5045088;28;20033;-80
2023/10/16 12:17:19;;;;;;;2.03;1.02;;;;;;;11.32;80.01;102134.09;5050826;28;20025;-80
2023/10/16 12:19:45;;;;;;;2.08;1.00;;;;;;;11.36;79.64;102128.84;5039512;28;20029;-81
2023/10/16 12:22:11;;;;;;;2.45;1.00;;;;;;;11.45;79.89;102127.00;5043049;28;20040;-80
2023/10/16 12:24:36;;;;;;;2.70;1.08;;;;;;;11.55;79.05;102131.28;5042059;28;20024;-80
2023/10/16 12:27:01;;;;;;;2.08;1.27;;;;;;;11.63;78.47;102116.41;5041267;28;20029;-81
2023/10/16 12:29:27;;;;;;;3.35;1.17;;;;;;;11.71;79.19;102116.34;5043367;28;20468;-81
2023/10/16 12:31:54;;;;;;;2.70;1.15;;;;;;;11.75;77.81;102112.84;5043449;28;20028;-81
2023/10/16 12:34:22;;;;;;;2.13;1.13;;;;;;;11.79;78.60;102111.94;5037319;28;20381;-80
2023/10/16 12:36:49;;;;;;;1.30;1.00;;;;;;;11.80;76.99;102113.66;5042502;28;20077;-80
2023/10/16 12:39:24;;;;;;;1.80;0.95;;;;;;;11.81;75.74;102111.91;5044388;28;20479;-81
2023/10/16 12:41:53;;;;;;;2.22;0.90;;;;;;;11.85;75.74;102108.38;5045894;28;20086;-81
2023/10/16 12:44:18;;;;;;;2.00;1.10;;;;;;;11.91;76.26;102105.72;5041193;28;20021;-81
2023/10/16 12:46:43;;;;;;;1.85;1.20;;;;;;;11.98;76.52;102103.91;5041856;28;20036;-81
2023/10/16 12:49:09;;;;;;;2.40;1.30;;;;;;;12.03;76.74;102106.50;5040505;28;20044;-81
2023/10/16 12:51:34;;;;;;;3.35;1.35;;;;;;;12.07;76.60;102095.16;5043818;28;20032;-81
2023/10/16 12:54:03;;;;;;;2.67;1.27;;;;;;;12.08;76.65;102097.72;5048772;28;20021;-81
2023/10/16 12:56:33;;;;;;;2.17;1.30;;;;;;;12.09;76.48;102096.00;5040273;28;20028;-81
2023/10/16 12:58:59;;;;;;;4.20;1.33;;;;;;;12.09;75.81;102091.63;5037510;28;20472;-81
2023/10/16 13:01:24;;;;;;;3.00;1.30;;;;;;;12.12;76.51;102096.81;5036198;28;20045;-80
2023/10/16 13:03:50;;;;;;;2.45;1.20;;;;;;;12.14;76.41;102089.84;5037494;28;20302;-80
2023/10/16 13:06:15;;;;;;;2.50;1.20;;;;;;;12.17;76.25;102091.53;5047270;28;20037;-81
2023/10/16 13:08:42;;;;;;;1.42;1.10;;;;;;;12.20;74.43;102098.47;5042111;28;20059;-81
2023/10/16 13:11:07;;;;;;;3.70;1.40;;;;;;;12.23;75.76;102090.59;5041557;28;20036;-80
2023/10/16 13:13:33;;;;;;;1.50;1.15;;;;;;;12.26;75.98;102094.06;5045877;28;20033;-80
2023/10/16 13:16:00;;;;;;;1.17;0.93;;;;;;;12.29;75.13;102094.00;5042260;28;20120;-80